Time;durP1;ratioP1;P1;durP2;ratioP2;P2;SDS_P1;SDS_P2;PMS_P1;PMS_P2;Temp;Humidity;BMP_temperature;BMP_pressure;BME280_temperature;BME280_humidity;BME280_pressure;Samples;Min_cycle;Max_cycle;Signal;HPM_P1;HPM_P2
2021/03/11 00:01:41;;;;;;;50.58;32.17;;;;;;;1.69;65.16;94602.03;1807696;79;21077;-64
2021/03/11 00:04:09;;;;;;;50.35;31.40;;;;;;;1.72;65.13;94598.53;1807706;79;21052;-65
2021/03/11 00:06:37;;;;;;;54.63;33.85;;;;;;;1.71;65.15;94596.38;1807612;79;21077;-61
2021/03/11 00:09:06;;;;;;;67.25;38.00;;;;;;;1.72;65.18;94595.22;1807678;79;21112;-62
2021/03/11 00:11:35;;;;;;;69.22;39.88;;;;;;;1.75;64.99;94595.81;1807772;79;21206;-63
2021/03/11 00:14:04;;;;;;;52.58;34.53;;;;;;;1.75;64.96;94598.52;1808076;79;21073;-64
2021/03/11 00:16:32;;;;;;;53.90;34.13;;;;;;;1.70;64.85;94612.47;1813164;79;21152;-64
2021/03/11 00:19:01;;;;;;;56.45;34.15;;;;;;;1.67;65.09;94616.56;1813390;79;21617;-65
2021/03/11 00:21:29;;;;;;;55.60;33.85;;;;;;;1.69;65.09;94614.98;1813718;79;21053;-64
2021/03/11 00:23:57;;;;;;;62.90;35.85;;;;;;;1.78;64.86;94611.28;1813627;79;21212;-64
2021/03/11 00:26:26;;;;;;;53.10;33.42;;;;;;;1.74;64.55;94615.95;1813685;78;21576;-63
2021/03/11 00:28:54;;;;;;;48.87;32.00;;;;;;;1.65;64.72;94604.75;1813298;78;21104;-64
2021/03/11 00:31:22;;;;;;;56.98;35.23;;;;;;;1.56;64.83;94601.70;1813437;78;22129;-64
2021/03/11 00:33:51;;;;;;;45.48;30.32;;;;;;;1.50;65.20;94605.96;1813508;78;21466;-65
2021/03/11 00:36:20;;;;;;;49.55;31.93;;;;;;;1.49;65.20;94599.00;1813013;79;22371;-64
2021/03/11 00:38:47;;;;;;;58.45;34.38;;;;;;;1.44;65.21;94589.92;1813613;78;21080;-65
2021/03/11 00:41:16;;;;;;;51.70;31.35;;;;;;;1.41;65.31;94598.06;1813611;79;21120;-64
2021/03/11 00:43:44;;;;;;;52.23;32.88;;;;;;;1.38;65.43;94593.42;1813554;79;21137;-64
2021/03/11 00:46:12;;;;;;;54.42;32.05;;;;;;;1.44;65.56;94592.64;1813614;79;21065;-64
2021/03/11 00:48:40;;;;;;;44.70;28.67;;;;;;;1.50;65.29;94586.98;1813559;78;21189;-63
2021/03/11 00:51:08;;;;;;;45.38;30.55;;;;;;;1.49;65.12;94596.89;1813601;79;21072;-64
2021/03/11 00:53:38;;;;;;;45.52;27.75;;;;;;;1.47;65.37;94596.51;1810460;78;21077;-64
2021/03/11 00:56:07;;;;;;;50.20;32.73;;;;;;;1.50;65.26;94601.89;1813614;79;21148;-65
2021/03/11 00:58:36;;;;;;;54.03;34.45;;;;;;;1.46;65.34;94597.08;1813674;79;21557;-64
2021/03/11 01:01:06;;;;;;;89.05;46.50;;;;;;;1.55;65.37;94596.09;1813609;79;21405;-64
2021/03/11 01:03:36;;;;;;;103.38;52.33;;;;;;;1.68;65.01;94597.17;1812893;78;21183;-65
2021/03/11 01:06:05;;;;;;;84.37;44.10;;;;;;;1.73;64.76;94593.29;1813602;79;21109;-65
2021/03/11 01:08:41;;;;;;;84.10;41.85;;;;;;;1.74;64.68;94599.69;1813705;78;21065;-64
2021/03/11 01:11:09;;;;;;;85.95;44.88;;;;;;;1.80;64.42;94603.52;1813615;78;21053;-64
2021/03/11 01:13:37;;;;;;;87.40;45.52;;;;;;;1.79;64.35;94597.91;1813523;78;21136;-65
2021/03/11 01:16:06;;;;;;;75.72;43.25;;;;;;;1.77;64.16;94592.12;1808903;79;21157;-64
2021/03/11 01:18:35;;;;;;;53.48;33.13;;;;;;;1.69;64.10;94594.66;1807862;79;21094;-65
2021/03/11 01:21:04;;;;;;;52.03;33.45;;;;;;;1.62;64.34;94592.55;1807845;78;21641;-65
2021/03/11 01:23:32;;;;;;;47.58;29.95;;;;;;;1.55;64.49;94588.53;1807888;79;21058;-64
2021/03/11 01:26:01;;;;;;;56.50;34.50;;;;;;;1.57;64.43;94582.13;1807855;79;21132;-64
2021/03/11 01:28:29;;;;;;;56.02;33.13;;;;;;;1.51;64.39;94584.47;1807746;79;21081;-64
2021/03/11 01:30:57;;;;;;;47.88;29.98;;;;;;;1.46;64.23;94582.17;1807819;78;21129;-64
2021/03/11 01:33:25;;;;;;;48.75;29.23;;;;;;;1.40;64.47;94582.39;1807793;78;21108;-64
2021/03/11 01:35:54;;;;;;;51.20;34.23;;;;;;;1.39;64.44;94581.42;1807855;79;21125;-65
2021/03/11 01:38:23;;;;;;;53.10;33.78;;;;;;;1.39;64.34;94580.85;1807834;78;21355;-64
2021/03/11 01:40:53;;;;;;;49.63;32.78;;;;;;;1.33;64.29;94576.98;1807704;79;21081;-63
2021/03/11 01:43:21;;;;;;;45.55;30.15;;;;;;;1.29;64.54;94583.60;1779501;79;21081;-63
2021/03/11 01:45:50;;;;;;;41.80;28.75;;;;;;;1.28;64.75;94584.77;1807833;79;21066;-63
2021/03/11 01:48:18;;;;;;;42.83;29.35;;;;;;;1.33;64.60;94578.34;1807834;78;21470;-64
2021/03/11 01:50:48;;;;;;;43.13;28.32;;;;;;;1.35;64.54;94578.72;1807825;79;21432;-64
2021/03/11 01:53:16;;;;;;;43.10;29.65;;;;;;;1.34;64.56;94576.42;1807731;79;21145;-63
2021/03/11 01:55:44;;;;;;;46.20;30.92;;;;;;;1.33;64.42;94572.92;1807782;79;21081;-63
2021/03/11 01:58:13;;;;;;;45.83;29.75;;;;;;;1.29;64.42;94585.71;1807814;78;21157;-64
2021/03/11 02:00:41;;;;;;;44.30;29.45;;;;;;;1.23;64.64;94579.16;1807882;79;21057;-65
2021/03/11 02:03:09;;;;;;;40.05;28.12;;;;;;;1.24;64.56;94578.56;1807841;79;21273;-64
2021/03/11 02:05:37;;;;;;;45.30;30.40;;;;;;;1.20;64.74;94579.95;1807781;79;21090;-65
2021/03/11 02:08:05;;;;;;;44.20;28.65;;;;;;;1.21;64.85;94579.35;1807754;79;21192;-65
2021/03/11 02:10:33;;;;;;;43.28;27.90;;;;;;;1.25;64.74;94579.54;1807888;78;21617;-65
2021/03/11 02:13:31;;;;;;;42.35;29.50;;;;;;;1.28;64.49;94576.05;1807781;79;21041;-63
2021/03/11 02:16:16;;;;;;;51.40;31.80;;;;;;;1.29;64.65;94581.65;1807681;79;21204;-65
2021/03/11 02:18:54;;;;;;;45.23;29.50;;;;;;;1.31;64.76;94575.84;1807775;78;21128;-64
2021/03/11 02:21:26;;;;;;;42.38;29.12;;;;;;;1.40;64.76;94582.39;1807816;79;21077;-64
2021/03/11 02:27:24;;;;;;;47.62;29.95;;;;;;;1.41;64.65;94578.52;1807114;79;21077;-65
2021/03/11 02:29:54;;;;;;;47.75;30.92;;;;;;;1.42;64.44;94579.28;1788915;79;21113;-64
2021/03/11 02:32:23;;;;;;;48.98;32.35;;;;;;;1.32;64.72;94580.86;1807735;79;21109;-64
2021/03/11 02:34:57;;;;;;;49.40;32.28;;;;;;;1.39;64.83;94580.85;1807752;79;21057;-63
2021/03/11 02:37:42;;;;;;;47.17;31.05;;;;;;;1.44;64.66;94575.02;1807810;79;21074;-63
2021/03/11 02:40:26;;;;;;;41.05;28.95;;;;;;;1.49;64.57;94577.31;1807826;79;21049;-64
2021/03/11 02:42:55;;;;;;;46.13;29.27;;;;;;;1.55;64.38;94572.27;1807828;79;21379;-64
2021/03/11 02:45:26;;;;;;;47.90;32.00;;;;;;;1.58;64.16;94566.84;1807748;78;21172;-64
2021/03/11 02:47:55;;;;;;;57.30;34.38;;;;;;;1.51;64.27;94572.27;1807841;78;21144;-64
2021/03/11 02:50:24;;;;;;;49.08;31.42;;;;;;;1.46;64.53;94574.61;1807745;79;21169;-65
2021/03/11 02:52:52;;;;;;;49.53;33.70;;;;;;;1.50;64.65;94575.39;1807788;78;21475;-64
2021/03/11 02:55:22;;;;;;;53.08;32.13;;;;;;;1.59;64.55;94576.52;1807926;78;21354;-64
2021/03/11 02:57:51;;;;;;;49.53;33.53;;;;;;;1.71;64.14;94577.41;1807675;79;21494;-64
2021/03/11 03:00:20;;;;;;;53.02;34.25;;;;;;;1.74;63.92;94576.64;1807864;79;21187;-64
2021/03/11 03:02:48;;;;;;;49.98;33.95;;;;;;;1.77;63.88;94576.60;1807767;79;21061;-65
2021/03/11 03:05:19;;;;;;;56.60;35.08;;;;;;;1.80;63.77;94581.83;1807821;79;21129;-65
2021/03/11 03:07:50;;;;;;;54.10;33.08;;;;;;;1.76;63.64;94578.38;1807771;79;21427;-64
2021/03/11 03:10:26;;;;;;;51.88;30.70;;;;;;;1.76;63.51;94567.52;1807744;79;21066;-64
2021/03/11 03:12:56;;;;;;;51.18;30.70;;;;;;;1.79;63.37;94578.94;1807886;79;21473;-65
2021/03/11 03:15:23;;;;;;;44.33;29.18;;;;;;;1.73;63.44;94576.42;1807689;79;21545;-65
2021/03/11 03:17:52;;;;;;;40.73;26.82;;;;;;;1.72;63.74;94578.95;1807809;78;21049;-66
2021/03/11 03:20:22;;;;;;;41.55;27.15;;;;;;;1.76;63.69;94575.66;1807781;79;21358;-64
2021/03/11 03:22:50;;;;;;;42.62;28.67;;;;;;;1.87;63.54;94583.92;1777083;79;21458;-63
2021/03/11 03:25:19;;;;;;;41.60;27.50;;;;;;;1.86;63.23;94582.37;1807762;79;21152;-63
2021/03/11 03:27:47;;;;;;;35.10;24.82;;;;;;;1.80;63.21;94583.94;1807864;79;21168;-64
2021/03/11 03:30:18;;;;;;;38.28;27.07;;;;;;;1.72;63.33;94581.66;1807783;79;21132;-65
2021/03/11 03:32:46;;;;;;;42.25;28.83;;;;;;;1.56;63.78;94586.79;1807756;79;21356;-65
2021/03/11 03:35:14;;;;;;;43.08;28.45;;;;;;;1.56;63.95;94580.58;1807803;79;21164;-64
2021/03/11 03:37:43;;;;;;;46.73;29.60;;;;;;;1.60;64.04;94578.05;1807692;79;21157;-65
2021/03/11 03:40:14;;;;;;;44.70;30.27;;;;;;;1.61;63.87;94577.45;1807760;78;21061;-65
2021/03/11 03:42:47;;;;;;;44.77;31.27;;;;;;;1.54;63.94;94581.56;1807814;79;21080;-64
2021/03/11 03:45:23;;;;;;;50.12;31.48;;;;;;;1.47;64.21;94581.60;1807851;79;21186;-65
2021/03/11 03:47:51;;;;;;;54.05;33.02;;;;;;;1.42;64.25;94586.84;1807646;78;21093;-65
2021/03/11 03:50:20;;;;;;;49.55;32.03;;;;;;;1.41;64.58;94585.30;1807730;79;21045;-63
2021/03/11 03:52:48;;;;;;;56.42;33.42;;;;;;;1.43;64.55;94592.45;1807730;79;21502;-65
2021/03/11 03:55:15;;;;;;;51.70;33.33;;;;;;;1.39;64.68;94593.05;1807732;79;21141;-65
2021/03/11 03:57:47;;;;;;;53.08;32.95;;;;;;;1.47;64.67;94587.78;1807819;79;21155;-65
2021/03/11 04:00:16;;;;;;;52.20;31.82;;;;;;;1.55;64.39;94585.81;1807706;79;21117;-63
2021/03/11 04:02:44;;;;;;;47.17;30.10;;;;;;;1.58;64.30;94587.16;1807831;78;21593;-65
2021/03/11 04:05:12;;;;;;;46.95;30.17;;;;;;;1.60;64.44;94588.90;1778928;79;21070;-64
2021/03/11 04:07:40;;;;;;;62.45;36.58;;;;;;;1.64;64.28;94588.86;1807767;78;21085;-64
2021/03/11 04:10:09;;;;;;;54.42;34.05;;;;;;;1.63;64.17;94585.97;1807737;78;21473;-64
2021/03/11 04:12:37;;;;;;;48.87;31.73;;;;;;;1.63;64.18;94598.95;1807675;78;21129;-64
2021/03/11 04:15:07;;;;;;;45.38;29.20;;;;;;;1.63;64.04;94592.17;1807707;79;21129;-62
2021/03/11 04:17:34;;;;;;;38.28;28.02;;;;;;;1.60;64.03;94597.59;1813249;79;21109;-66
2021/03/11 04:20:07;;;;;;;37.08;26.68;;;;;;;1.55;64.15;94597.45;1813583;79;21054;-65
2021/03/11 04:22:35;;;;;;;40.65;27.60;;;;;;;1.54;64.10;94593.16;1813765;79;21184;-65
2021/03/11 04:25:20;;;;;;;36.68;26.10;;;;;;;1.53;64.37;94590.86;1786689;79;21415;-65
2021/03/11 04:27:48;;;;;;;37.35;26.93;;;;;;;1.64;64.37;94591.58;1813564;78;21084;-65
2021/03/11 04:30:18;;;;;;;39.60;27.95;;;;;;;1.75;63.85;94591.14;1813574;79;21108;-65
2021/03/11 04:32:46;;;;;;;43.10;29.85;;;;;;;1.83;63.85;94598.66;1787055;79;21552;-65
2021/03/11 04:35:14;;;;;;;46.48;30.68;;;;;;;1.93;63.38;94597.25;1813538;79;21449;-65
2021/03/11 04:37:42;;;;;;;57.58;34.15;;;;;;;1.94;63.25;94588.55;1813531;78;21094;-65
2021/03/11 04:40:10;;;;;;;52.45;33.05;;;;;;;1.89;63.09;94598.42;1813571;79;21171;-64
2021/03/11 04:42:38;;;;;;;57.35;35.30;;;;;;;1.88;63.20;94592.81;1813576;79;21090;-64
2021/03/11 04:45:08;;;;;;;90.03;52.33;;;;;;;1.77;63.15;94586.09;1748814;79;21121;-64
2021/03/11 04:47:36;;;;;;;57.50;38.10;;;;;;;1.67;63.50;94594.88;1813526;78;21253;-64
2021/03/11 04:50:06;;;;;;;56.75;37.98;;;;;;;1.58;63.51;94583.67;1813615;79;21116;-64
2021/03/11 04:52:36;;;;;;;49.05;34.08;;;;;;;1.47;64.01;94582.36;1813541;79;21148;-64
2021/03/11 04:55:06;;;;;;;46.60;31.75;;;;;;;1.43;64.19;94586.23;1813573;79;21092;-64
2021/03/11 04:57:34;;;;;;;42.38;31.25;;;;;;;1.37;64.31;94585.11;1813623;78;21105;-65
2021/03/11 05:00:03;;;;;;;41.73;30.35;;;;;;;1.35;64.67;94588.80;1813593;79;21283;-65
2021/03/11 05:02:33;;;;;;;41.58;29.20;;;;;;;1.35;64.68;94587.45;1813629;79;21096;-64
2021/03/11 05:05:08;;;;;;;38.38;28.27;;;;;;;1.28;64.83;94584.17;1813535;79;21077;-64
2021/03/11 05:07:35;;;;;;;36.45;27.35;;;;;;;1.21;65.17;94580.14;1813578;78;21124;-64
2021/03/11 05:10:06;;;;;;;40.30;29.02;;;;;;;1.23;65.20;94578.38;1813594;79;21117;-64
2021/03/11 05:12:33;;;;;;;42.27;30.55;;;;;;;1.24;65.45;94576.64;1813587;79;21201;-64
2021/03/11 05:15:01;;;;;;;38.20;28.92;;;;;;;1.35;65.42;94574.66;1813443;78;21934;-64
2021/03/11 05:17:29;;;;;;;46.35;33.60;;;;;;;1.50;65.04;94578.86;1808953;78;21034;-64
2021/03/11 05:19:57;;;;;;;52.65;35.20;;;;;;;1.60;65.06;94578.05;1807851;79;21499;-64
2021/03/11 05:22:25;;;;;;;51.95;33.88;;;;;;;1.74;64.79;94574.69;1807841;79;21136;-63
2021/03/11 05:24:53;;;;;;;55.63;35.38;;;;;;;1.85;64.29;94582.77;1807806;79;21235;-65
2021/03/11 05:27:22;;;;;;;58.85;35.65;;;;;;;1.82;64.11;94578.14;1807815;79;21077;-64
2021/03/11 05:29:51;;;;;;;60.40;35.85;;;;;;;1.88;64.21;94580.61;1807783;79;21078;-62
2021/03/11 05:32:19;;;;;;;76.80;45.12;;;;;;;2.01;63.95;94590.63;1807816;79;21093;-65
2021/03/11 05:34:47;;;;;;;73.80;44.27;;;;;;;2.07;63.47;94589.04;1807808;78;21102;-64
2021/03/11 05:37:15;;;;;;;64.00;42.38;;;;;;;2.09;63.49;94595.41;1807823;79;21428;-64
2021/03/11 05:39:44;;;;;;;59.38;38.08;;;;;;;2.17;63.28;94592.86;1807779;79;21132;-64
2021/03/11 05:42:12;;;;;;;56.23;37.93;;;;;;;2.21;63.12;94590.31;1807806;79;21057;-65
2021/03/11 05:44:40;;;;;;;65.32;41.83;;;;;;;2.27;62.82;94587.92;1807869;79;21073;-65
2021/03/11 05:47:08;;;;;;;73.55;48.02;;;;;;;2.27;62.74;94593.36;1807798;78;21057;-64
2021/03/11 05:49:36;;;;;;;69.77;43.13;;;;;;;2.30;62.85;94583.09;1807807;78;21265;-65
2021/03/11 05:52:04;;;;;;;74.40;45.90;;;;;;;2.44;62.55;94583.75;1807743;79;21185;-65
2021/03/11 05:54:32;;;;;;;68.35;43.68;;;;;;;2.49;62.26;94588.75;1807807;79;21061;-64
2021/03/11 05:57:01;;;;;;;72.60;43.58;;;;;;;2.49;62.27;94593.42;1754350;79;21074;-65
2021/03/11 05:59:30;;;;;;;74.40;48.45;;;;;;;2.61;62.15;94588.84;1807827;79;21049;-65
2021/03/11 06:02:05;;;;;;;83.25;50.78;;;;;;;2.75;61.63;94599.59;1807787;79;21188;-66
2021/03/11 06:04:37;;;;;;;70.95;46.68;;;;;;;2.73;61.34;94599.23;1807858;79;21065;-65
2021/03/11 06:07:06;;;;;;;68.35;43.35;;;;;;;2.67;61.42;94589.37;1807811;79;21120;-66
2021/03/11 06:09:35;;;;;;;61.83;40.52;;;;;;;2.59;61.57;94596.05;1807755;79;21117;-64
2021/03/11 06:12:05;;;;;;;64.58;42.38;;;;;;;2.51;61.81;94600.58;1807797;78;21184;-64
2021/03/11 06:14:36;;;;;;;67.40;42.88;;;;;;;2.45;61.94;94596.72;1807841;79;22082;-65
2021/03/11 06:17:06;;;;;;;63.48;40.58;;;;;;;2.45;62.12;94601.58;1807384;78;21553;-65
2021/03/11 06:19:34;;;;;;;54.20;35.68;;;;;;;2.59;61.59;94600.70;1807687;79;21117;-65
2021/03/11 06:22:03;;;;;;;41.77;28.52;;;;;;;2.64;60.83;94605.69;1807693;79;21077;-64
2021/03/11 06:24:30;;;;;;;45.52;32.45;;;;;;;2.58;60.54;94608.66;1807396;78;21529;-64
2021/03/11 06:26:58;;;;;;;55.55;36.38;;;;;;;2.56;60.20;94609.64;1807652;79;21336;-62
2021/03/11 06:29:40;;;;;;;43.42;30.25;;;;;;;2.53;60.29;94608.48;1807130;79;21180;-64
2021/03/11 06:32:08;;;;;;;40.17;28.85;;;;;;;2.59;60.17;94612.91;1807385;79;21041;-64
2021/03/11 06:34:43;;;;;;;35.30;26.12;;;;;;;2.68;59.87;94611.89;1807623;79;21573;-63
2021/03/11 06:37:13;;;;;;;34.10;25.27;;;;;;;2.84;59.55;94613.51;1807867;79;21550;-63
2021/03/11 06:39:43;;;;;;;45.17;30.90;;;;;;;3.00;58.93;94609.66;1807705;79;21194;-65
2021/03/11 06:42:11;;;;;;;33.78;25.68;;;;;;;3.11;58.52;94614.41;1807713;79;21137;-62
2021/03/11 06:44:41;;;;;;;41.60;29.15;;;;;;;3.17;58.06;94610.08;1807700;79;21042;-65
2021/03/11 06:47:13;;;;;;;37.65;27.85;;;;;;;3.15;58.26;94619.22;1806631;78;21126;-65
2021/03/11 06:50:00;;;;;;;43.58;30.60;;;;;;;3.26;57.85;94619.91;1807424;78;21086;-65
2021/03/11 06:52:30;;;;;;;44.60;32.42;;;;;;;3.32;57.82;94621.00;1808846;78;22113;-64
2021/03/11 06:55:05;;;;;;;51.90;34.43;;;;;;;3.39;57.39;94634.54;1806914;79;21642;-62
2021/03/11 06:57:38;;;;;;;55.05;36.00;;;;;;;3.38;57.55;94634.36;1805342;78;21501;-62
2021/03/11 07:00:22;;;;;;;46.88;31.68;;;;;;;3.49;57.29;94633.83;1805400;79;21164;-62
2021/03/11 07:02:57;;;;;;;42.88;30.85;;;;;;;3.55;57.14;94627.36;1802103;78;21041;-65
2021/03/11 07:05:26;;;;;;;46.53;31.27;;;;;;;3.66;57.02;94623.34;1798117;78;21425;-64
2021/03/11 07:08:14;;;;;;;38.00;26.00;;;;;;;3.77;56.83;94625.37;1786183;78;21152;-62
2021/03/11 07:10:45;;;;;;;36.65;25.57;;;;;;;3.85;56.25;94629.53;1806434;78;21145;-63
2021/03/11 07:13:14;;;;;;;38.75;27.10;;;;;;;3.77;55.62;94640.33;1793853;79;21200;-64
2021/03/11 07:15:43;;;;;;;31.42;23.85;;;;;;;3.63;56.00;94636.97;1781446;78;21129;-66
2021/03/11 07:18:23;;;;;;;30.20;23.00;;;;;;;3.64;55.65;94636.58;1803353;78;21382;-60
2021/03/11 07:20:51;;;;;;;38.67;27.82;;;;;;;3.71;55.40;94631.05;1799649;79;21136;-66
2021/03/11 07:23:20;;;;;;;33.90;24.40;;;;;;;3.74;55.22;94636.28;1800464;78;21125;-69
2021/03/11 07:25:49;;;;;;;29.25;22.45;;;;;;;3.70;55.06;94636.31;1802960;78;21632;-63
2021/03/11 07:28:26;;;;;;;34.85;26.15;;;;;;;3.66;54.97;94639.66;1807955;78;21617;-63
2021/03/11 07:31:00;;;;;;;30.43;23.80;;;;;;;3.62;55.31;94630.78;1801451;78;21653;-65
2021/03/11 07:33:31;;;;;;;37.98;27.05;;;;;;;3.72;55.08;94636.67;1802613;78;21179;-60
2021/03/11 07:36:04;;;;;;;31.37;23.73;;;;;;;3.75;54.42;94635.88;1807185;78;21174;-69
2021/03/11 07:38:45;;;;;;;29.07;20.97;;;;;;;3.80;54.81;94642.23;1870829;76;21838;-68
2021/03/11 07:41:13;;;;;;;30.57;23.30;;;;;;;3.68;54.79;94642.75;1824049;78;21164;-63
2021/03/11 07:43:41;;;;;;;30.80;23.32;;;;;;;3.52;54.96;94637.09;1834966;77;21691;-64
2021/03/11 07:46:11;;;;;;;30.15;22.90;;;;;;;3.26;54.98;94641.65;1827983;76;21632;-71
2021/03/11 07:48:40;;;;;;;33.40;24.25;;;;;;;3.01;55.46;94641.87;1774148;80;21328;-65
2021/03/11 07:51:08;;;;;;;36.25;26.15;;;;;;;2.98;55.60;94644.61;1769786;78;21112;-64
2021/03/11 07:53:37;;;;;;;35.95;25.50;;;;;;;3.07;55.69;94638.14;1782443;79;21143;-67
2021/03/11 07:56:06;;;;;;;30.65;24.55;;;;;;;3.18;55.68;94638.80;1746539;80;21481;-66
2021/03/11 07:58:36;;;;;;;31.68;21.55;;;;;;;3.16;55.18;94632.42;1783840;78;21608;-64
2021/03/11 08:01:04;;;;;;;25.50;20.50;;;;;;;3.21;54.99;94629.27;1786333;79;21164;-66
2021/03/11 08:03:32;;;;;;;26.87;19.48;;;;;;;3.44;54.73;94634.09;1806819;78;22307;-62
2021/03/11 08:06:26;;;;;;;30.65;22.77;;;;;;;3.49;55.09;94636.55;1811367;78;21176;-61
2021/03/11 08:08:54;;;;;;;33.42;21.95;;;;;;;3.40;55.20;94633.36;1803739;79;21360;-63
2021/03/11 08:11:41;;;;;;;30.95;22.20;;;;;;;3.49;55.42;94621.59;1805700;78;21617;-65
2021/03/11 08:14:25;;;;;;;30.52;21.33;;;;;;;3.73;54.74;94621.89;1806781;78;21200;-64
2021/03/11 08:16:54;;;;;;;31.62;24.32;;;;;;;3.91;54.45;94611.57;1800906;78;21195;-66
2021/03/11 08:19:37;;;;;;;31.37;25.27;;;;;;;4.02;53.60;94608.13;1788583;78;21129;-66
2021/03/11 08:22:05;;;;;;;29.57;22.55;;;;;;;4.04;54.22;94605.77;1778722;79;21210;-65
2021/03/11 08:24:45;;;;;;;27.70;21.27;;;;;;;4.13;54.09;94607.42;1798838;78;22272;-64
2021/03/11 08:27:34;;;;;;;25.00;19.80;;;;;;;4.16;54.23;94599.00;1800684;79;21212;-62
2021/03/11 08:30:05;;;;;;;27.05;21.68;;;;;;;4.22;53.93;94599.50;1792332;78;21164;-66
2021/03/11 08:32:51;;;;;;;28.73;21.35;;;;;;;4.31;54.07;94604.44;1803798;78;21537;-64
2021/03/11 08:35:40;;;;;;;27.30;21.42;;;;;;;4.30;53.71;94596.09;1793694;78;22255;-64
2021/03/11 08:38:27;;;;;;;28.32;20.97;;;;;;;4.44;53.04;94599.38;1815462;78;21184;-64
2021/03/11 08:41:08;;;;;;;27.52;21.15;;;;;;;4.37;52.47;94594.05;1818588;78;21160;-64
2021/03/11 08:43:43;;;;;;;37.28;25.70;;;;;;;4.24;52.73;94593.66;1791438;78;21100;-63
2021/03/11 08:46:21;;;;;;;29.37;22.75;;;;;;;4.30;53.58;94585.98;1802349;78;21120;-62
2021/03/11 08:48:58;;;;;;;25.32;20.25;;;;;;;4.47;53.84;94580.88;1788978;78;21260;-66
2021/03/11 08:51:32;;;;;;;31.87;22.50;;;;;;;4.55;53.90;94576.84;1817470;78;21636;-62
2021/03/11 08:54:05;;;;;;;34.20;26.57;;;;;;;4.56;53.65;94568.86;1817285;77;21138;-65
2021/03/11 08:56:39;;;;;;;28.98;20.92;;;;;;;4.57;53.47;94569.64;1796134;78;21207;-67
2021/03/11 08:59:14;;;;;;;31.80;23.87;;;;;;;4.63;54.18;94563.89;1795537;78;21187;-66
2021/03/11 09:01:55;;;;;;;28.85;21.07;;;;;;;4.66;54.35;94566.56;1822047;78;21210;-65
2021/03/11 09:04:37;;;;;;;32.80;23.55;;;;;;;4.81;52.82;94573.91;1791684;78;21585;-65
2021/03/11 09:07:12;;;;;;;26.33;20.25;;;;;;;4.82;53.24;94570.76;1785879;79;21160;-71
2021/03/11 09:09:49;;;;;;;25.37;20.85;;;;;;;4.94;52.65;94581.08;1779279;78;21124;-69
2021/03/11 09:12:25;;;;;;;26.42;21.55;;;;;;;4.95;51.63;94566.27;1805206;77;21096;-65
2021/03/11 09:14:59;;;;;;;29.80;22.87;;;;;;;4.98;52.02;94567.40;1796774;78;21204;-67
2021/03/11 09:17:32;;;;;;;26.65;19.57;;;;;;;5.08;52.22;94565.85;1811116;77;21623;-62
2021/03/11 09:20:12;;;;;;;29.72;21.95;;;;;;;5.33;53.17;94562.08;1776068;79;21400;-66
2021/03/11 09:22:43;;;;;;;30.80;21.68;;;;;;;5.54;53.14;94565.76;1801326;78;21203;-65
2021/03/11 09:25:20;;;;;;;27.52;20.60;;;;;;;5.74;52.98;94567.89;1787470;79;21588;-67
2021/03/11 09:27:59;;;;;;;22.75;17.67;;;;;;;5.98;52.45;94561.21;1803573;79;21216;-64
2021/03/11 09:30:35;;;;;;;25.10;19.98;;;;;;;6.23;50.52;94563.59;1805790;79;21176;-63
2021/03/11 09:33:14;;;;;;;27.67;21.00;;;;;;;6.41;48.94;94554.98;1795689;78;21584;-62
2021/03/11 09:35:42;;;;;;;29.85;22.87;;;;;;;6.46;48.13;94551.16;1804133;78;21173;-62
2021/03/11 09:38:14;;;;;;;30.32;22.13;;;;;;;6.34;48.97;94554.55;1799217;77;21157;-68
2021/03/11 09:40:49;;;;;;;27.85;22.20;;;;;;;6.41;48.05;94553.04;1781996;77;21398;-61
2021/03/11 09:43:28;;;;;;;25.55;20.95;;;;;;;6.56;48.08;94553.47;1802461;77;21262;-66
2021/03/11 09:46:10;;;;;;;28.73;21.87;;;;;;;6.77;47.58;94550.23;1788695;79;21160;-66
2021/03/11 09:48:43;;;;;;;26.68;19.55;;;;;;;7.08;47.06;94554.16;1788075;78;21519;-67
2021/03/11 09:51:27;;;;;;;25.82;21.02;;;;;;;7.62;46.68;94544.29;1802951;77;21507;-65
2021/03/11 09:54:00;;;;;;;32.73;21.73;;;;;;;8.03;44.53;94542.92;1785483;79;22279;-67
2021/03/11 09:56:32;;;;;;;27.25;22.02;;;;;;;8.30;43.78;94533.74;1779219;79;21227;-63
2021/03/11 09:59:14;;;;;;;29.87;22.27;;;;;;;8.73;44.92;94537.28;1779413;79;21215;-66
2021/03/11 10:01:44;;;;;;;18.77;16.42;;;;;;;9.29;44.33;94534.84;1792762;77;21175;-67
2021/03/11 10:04:27;;;;;;;18.30;15.45;;;;;;;9.93;41.69;94533.53;1797412;79;21172;-62
2021/03/11 10:06:59;;;;;;;22.00;16.55;;;;;;;10.27;41.68;94527.98;1789850;79;21229;-65
2021/03/11 10:09:41;;;;;;;19.98;16.02;;;;;;;10.71;39.46;94532.14;1786307;79;21255;-61
2021/03/11 10:12:12;;;;;;;15.13;13.20;;;;;;;11.12;39.92;94525.55;1793622;79;21620;-68
2021/03/11 10:14:44;;;;;;;19.07;15.65;;;;;;;11.68;38.62;94528.72;1790754;77;21128;-67
2021/03/11 10:17:20;;;;;;;23.57;19.85;;;;;;;12.04;37.61;94514.91;1788569;79;21663;-62
2021/03/11 10:19:49;;;;;;;19.55;16.48;;;;;;;12.46;37.86;94506.08;1793552;79;21219;-69
2021/03/11 10:22:22;;;;;;;29.52;17.62;;;;;;;12.88;35.89;94507.61;1781524;79;21679;-66
2021/03/11 10:24:52;;;;;;;21.15;18.52;;;;;;;13.17;35.91;94505.64;1788110;79;21161;-65
2021/03/11 10:27:32;;;;;;;15.95;13.08;;;;;;;13.48;35.37;94514.36;1794958;77;21609;-67
2021/03/11 10:30:08;;;;;;;14.35;10.78;;;;;;;13.81;33.87;94506.74;1781839;79;21548;-68
2021/03/11 10:32:39;;;;;;;14.55;11.90;;;;;;;14.01;31.90;94500.71;1803084;79;21184;-65
2021/03/11 10:35:12;;;;;;;14.07;11.80;;;;;;;14.02;30.75;94505.64;1786015;79;22133;-67
2021/03/11 10:37:42;;;;;;;24.35;11.22;;;;;;;14.17;32.35;94503.69;1778176;77;21555;-66
2021/03/11 10:40:13;;;;;;;17.42;11.05;;;;;;;14.55;31.26;94502.97;1813639;77;21609;-67
2021/03/11 10:42:46;;;;;;;10.20;8.25;;;;;;;14.69;30.49;94508.52;1810658;79;21227;-64
2021/03/11 10:45:17;;;;;;;13.98;11.30;;;;;;;14.53;28.47;94503.45;1803239;79;21227;-63
2021/03/11 10:48:04;;;;;;;18.20;10.38;;;;;;;14.37;29.67;94501.02;1790232;79;21144;-67
2021/03/11 10:50:45;;;;;;;13.32;11.33;;;;;;;14.64;30.26;94498.09;1785951;77;21144;-65
2021/03/11 10:53:15;;;;;;;14.95;11.48;;;;;;;15.00;28.08;94492.75;1801046;77;21187;-63
2021/03/11 10:55:44;;;;;;;12.25;9.70;;;;;;;15.31;29.48;94489.56;1806018;78;21177;-62
2021/03/11 10:58:27;;;;;;;11.25;10.15;;;;;;;15.82;29.64;94495.88;1782540;77;21256;-65
2021/03/11 11:01:13;;;;;;;10.35;9.13;;;;;;;16.06;28.25;94486.08;1797616;79;21264;-61
2021/03/11 11:03:42;;;;;;;18.92;11.57;;;;;;;16.41;27.92;94483.94;1814937;77;21141;-69
2021/03/11 11:06:11;;;;;;;15.80;11.05;;;;;;;16.56;26.23;94480.42;1806809;77;21165;-65
2021/03/11 11:08:44;;;;;;;12.18;8.75;;;;;;;16.43;26.79;94482.82;1819601;77;21125;-66
2021/03/11 11:11:14;;;;;;;10.93;8.85;;;;;;;16.41;25.66;94480.55;1818125;77;22014;-63
2021/03/11 11:13:43;;;;;;;17.42;10.13;;;;;;;16.35;26.61;94479.72;1793242;79;21096;-68
2021/03/11 11:16:11;;;;;;;10.53;8.80;;;;;;;16.49;25.56;94469.73;1800790;79;21172;-70
2021/03/11 11:18:40;;;;;;;25.30;10.18;;;;;;;16.39;24.80;94471.18;1792487;79;21152;-65
2021/03/11 11:21:10;;;;;;;20.62;11.50;;;;;;;16.34;24.79;94462.15;1789352;79;21175;-66
2021/03/11 11:23:39;;;;;;;12.82;10.80;;;;;;;16.39;25.02;94460.07;1797085;77;21385;-65
2021/03/11 11:26:08;;;;;;;11.97;10.00;;;;;;;16.51;24.40;94468.00;1798818;79;21180;-65
2021/03/11 11:28:35;;;;;;;21.33;9.20;;;;;;;16.78;24.54;94464.70;1804988;77;21223;-65
2021/03/11 11:31:03;;;;;;;12.28;9.53;;;;;;;17.09;23.62;94463.91;1811002;79;21184;-66
2021/03/11 11:33:31;;;;;;;12.78;9.03;;;;;;;17.37;23.42;94461.45;1810547;77;21501;-65
2021/03/11 11:36:00;;;;;;;11.35;9.88;;;;;;;17.65;22.90;94456.03;1795737;79;21345;-67
2021/03/11 11:38:29;;;;;;;23.42;9.73;;;;;;;17.65;22.71;94467.16;1794044;80;21126;-66
2021/03/11 11:40:57;;;;;;;11.35;8.75;;;;;;;17.63;22.12;94462.08;1794940;79;21140;-65
2021/03/11 11:43:25;;;;;;;12.60;10.20;;;;;;;17.41;22.11;94456.41;1810223;79;21195;-67
2021/03/11 11:45:53;;;;;;;9.18;7.80;;;;;;;17.29;22.41;94456.83;1811921;79;21108;-63
2021/03/11 11:48:22;;;;;;;13.62;8.90;;;;;;;17.34;21.92;94449.95;1811893;79;21975;-69